createdAt,value
2023-03-16T00:00:10.017Z,1023.7
2023-03-16T00:06:00.110Z,1023.7
2023-03-16T00:11:29.288Z,1023.9
2023-03-16T00:17:01.017Z,1023.9
2023-03-16T00:22:21.040Z,1023.9
2023-03-16T00:28:13.566Z,1023.8
2023-03-16T00:33:48.099Z,1023.9
2023-03-16T00:39:12.351Z,1024.1
2023-03-16T00:44:49.004Z,1024.1
2023-03-16T00:50:26.723Z,1024.2
2023-03-16T00:55:46.598Z,1024.1
2023-03-16T01:01:07.333Z,1024.1
2023-03-16T01:06:39.829Z,1023.8
2023-03-16T01:12:12.160Z,1023.8
2023-03-16T01:17:59.806Z,1023.8
2023-03-16T01:23:26.245Z,1024
2023-03-16T01:28:59.156Z,1023.9
2023-03-16T01:34:45.893Z,1023.9
2023-03-16T01:39:53.570Z,1023.9
2023-03-16T01:45:54.407Z,1023.8
2023-03-16T01:51:15.555Z,1023.8
2023-03-16T01:56:41.723Z,1023.8
2023-03-16T02:02:06.378Z,1024
2023-03-16T02:07:47.032Z,1023.8
2023-03-16T02:13:32.289Z,1023.7
2023-03-16T02:19:01.522Z,1023.6
2023-03-16T02:24:17.571Z,1023.7
2023-03-16T02:30:06.565Z,1023.8
2023-03-16T02:35:29.953Z,1023.8
2023-03-16T02:41:18.115Z,1023.9
2023-03-16T02:46:49.426Z,1023.9
2023-03-16T02:52:25.443Z,1023.7
2023-03-16T02:57:32.531Z,1023.8
2023-03-16T03:03:27.217Z,1023.8
2023-03-16T03:08:58.770Z,1023.9
2023-03-16T03:14:24.198Z,1024
2023-03-16T03:20:03.879Z,1023.9
2023-03-16T03:25:34.578Z,1024
2023-03-16T03:30:59.623Z,1023.9
2023-03-16T03:36:32.819Z,1023.8
2023-03-16T03:41:51.386Z,1023.9
2023-03-16T03:47:44.743Z,1023.8
2023-03-16T03:53:20.826Z,1023.9
2023-03-16T03:58:33.511Z,1023.9
2023-03-16T04:04:08.763Z,1023.8
2023-03-16T04:10:02.095Z,1023.8
2023-03-16T04:15:24.035Z,1024
2023-03-16T04:20:51.735Z,1024
2023-03-16T04:26:35.373Z,1023.9
2023-03-16T04:31:55.014Z,1023.8
2023-03-16T04:37:42.385Z,1023.7
2023-03-16T04:43:14.144Z,1023.9
2023-03-16T04:48:31.943Z,1024.1
2023-03-16T04:54:09.548Z,1024
2023-03-16T04:59:44.896Z,1024
2023-03-16T05:05:15.172Z,1024.1
2023-03-16T05:10:54.880Z,1024.1
2023-03-16T05:16:20.397Z,1024
2023-03-16T05:22:03.046Z,1023.9
2023-03-16T05:27:12.771Z,1024
2023-03-16T05:32:54.886Z,1024.1
2023-03-16T05:38:40.467Z,1024.1
2023-03-16T05:44:14.625Z,1024
2023-03-16T05:49:42.897Z,1024.1
2023-03-16T05:55:12.805Z,1024.2
2023-03-16T06:00:40.501Z,1024.2
2023-03-16T06:05:57.824Z,1024
2023-03-16T06:11:38.559Z,1024.3
2023-03-16T06:17:10.431Z,1024.3
2023-03-16T06:23:02.849Z,1024.2
2023-03-16T06:28:20.801Z,1024.2
2023-03-16T06:33:49.993Z,1024.3
2023-03-16T06:39:20.146Z,1024.2
2023-03-16T06:44:56.624Z,1024
2023-03-16T06:50:31.378Z,1024.2
2023-03-16T06:56:00.284Z,1024.1
2023-03-16T07:01:24.970Z,1023.9
2023-03-16T07:07:13.023Z,1023.7
2023-03-16T07:12:50.615Z,1023.7
2023-03-16T07:18:26.566Z,1023.3
2023-03-16T07:23:45.729Z,1023.2
2023-03-16T07:29:17.728Z,1023.1
2023-03-16T07:34:45.737Z,1023
2023-03-16T07:40:34.273Z,1022.9
2023-03-16T07:46:15.545Z,1023
2023-03-16T07:51:27.568Z,1023
2023-03-16T07:56:58.635Z,1023
2023-03-16T08:02:40.454Z,1023.1
2023-03-16T08:08:23.171Z,1022.9
2023-03-16T08:13:35.053Z,1022.9
2023-03-16T08:19:20.045Z,1022.8
2023-03-16T08:25:01.545Z,1022.6
2023-03-16T08:30:23.028Z,1022.3
2023-03-16T08:35:59.008Z,1022.1
2023-03-16T08:41:29.356Z,1022.1
2023-03-16T08:47:24.290Z,1021.9
2023-03-16T08:52:52.710Z,1021.9
2023-03-16T08:58:11.187Z,1021.8
2023-03-16T09:03:57.643Z,1021.8
2023-03-16T09:09:17.692Z,1021.9
2023-03-16T09:15:18.930Z,1021.7
2023-03-16T09:20:40.929Z,1021.7
2023-03-16T09:26:07.921Z,1021.6
2023-03-16T09:31:55.605Z,1021.4
2023-03-16T09:37:39.868Z,1021.3
2023-03-16T09:43:10.378Z,1021.2
2023-03-16T09:48:43.348Z,1021.1
2023-03-16T09:54:20.803Z,1021.1
2023-03-16T09:59:38.550Z,1021
2023-03-16T10:05:16.515Z,1020.9
2023-03-16T10:10:45.665Z,1020.9
2023-03-16T10:16:28.162Z,1020.6
2023-03-16T10:22:06.813Z,1020.7
2023-03-16T10:27:28.040Z,1020.6
2023-03-16T10:33:22.672Z,1020.5
2023-03-16T10:38:41.051Z,1020.4
2023-03-16T10:44:28.857Z,1020.4
2023-03-16T10:49:59.085Z,1020.2
2023-03-16T10:55:24.716Z,1020.2
2023-03-16T11:01:09.376Z,1020.1
2023-03-16T11:06:31.930Z,1020.3
2023-03-16T11:12:06.625Z,1020.2
2023-03-16T11:17:48.875Z,1019.9
2023-03-16T11:23:20.217Z,1019.8
2023-03-16T11:29:11.830Z,1019.7
2023-03-16T11:34:35.552Z,1019.7
2023-03-16T11:40:18.412Z,1019.6
2023-03-16T11:45:46.039Z,1019.7
2023-03-16T11:51:27.400Z,1019.7
2023-03-16T11:57:12.548Z,1019.4
2023-03-16T12:02:42.264Z,1019.6
2023-03-16T12:08:20.513Z,1019.2
2023-03-16T12:13:53.969Z,1019.2
2023-03-16T12:19:11.131Z,1019.3
2023-03-16T12:24:59.044Z,1019.1
2023-03-16T12:30:33.625Z,1019.1
2023-03-16T12:36:10.714Z,1019
2023-03-16T12:41:40.203Z,1019
2023-03-16T12:47:29.328Z,1019
2023-03-16T12:52:50.154Z,1018.7
2023-03-16T12:58:26.641Z,1018.8
2023-03-16T13:03:57.534Z,1018.8
2023-03-16T13:09:31.233Z,1018.8
2023-03-16T13:15:16.209Z,1018.8
2023-03-16T13:21:05.643Z,1018.7
2023-03-16T13:26:27.870Z,1018.6
2023-03-16T13:31:53.499Z,1018.4
2023-03-16T13:37:53.710Z,1018.2
2023-03-16T13:43:18.602Z,1018.3
2023-03-16T13:48:58.394Z,1018
2023-03-16T13:54:28.606Z,1018.2
2023-03-16T14:00:06.959Z,1018
2023-03-16T14:05:48.340Z,1018.1
2023-03-16T14:11:29.878Z,1018
2023-03-16T14:28:15.374Z,1017.8
2023-03-16T14:33:57.977Z,1017.9
2023-03-16T14:39:36.952Z,1017.8
2023-03-16T14:45:04.493Z,1017.6
2023-03-16T14:50:31.045Z,1017.6
2023-03-16T14:56:21.662Z,1017.6
2023-03-16T15:02:02.761Z,1017.4
2023-03-16T15:19:02.876Z,1017.2
2023-03-16T15:57:58.669Z,1017.2
2023-03-16T16:03:40.444Z,1017.1
2023-03-16T16:09:33.006Z,1017
2023-03-16T16:25:57.777Z,1017
2023-03-16T16:31:50.100Z,1017
2023-03-16T16:37:03.191Z,1017
2023-03-16T16:42:34.145Z,1016.9
2023-03-16T16:48:18.643Z,1017
2023-03-16T16:54:00.454Z,1017
2023-03-16T16:59:36.373Z,1017.2
2023-03-16T17:21:37.644Z,1017.2
2023-03-16T17:27:33.809Z,1017.3
2023-03-16T17:32:50.614Z,1017.3
2023-03-16T17:38:43.359Z,1017.4
2023-03-16T17:43:57.140Z,1017.3
2023-03-16T17:49:26.331Z,1017.4
2023-03-16T17:55:06.411Z,1017.6
2023-03-16T18:00:47.620Z,1017.8
2023-03-16T18:06:10.316Z,1017.9
2023-03-16T18:11:56.703Z,1018.1
2023-03-16T18:17:24.435Z,1018
2023-03-16T18:22:54.530Z,1018.1
2023-03-16T18:28:30.362Z,1018.2
2023-03-16T18:34:15.980Z,1018.4
2023-03-16T18:39:31.134Z,1018.2
2023-03-16T18:45:01.188Z,1018.1
2023-03-16T18:50:38.434Z,1017.9
2023-03-16T18:56:08.628Z,1018.1
2023-03-16T19:01:38.066Z,1018.3
2023-03-16T19:07:25.391Z,1018.3
2023-03-16T19:12:58.428Z,1018.5
2023-03-16T19:18:26.582Z,1018.2
2023-03-16T19:23:58.869Z,1018.3
2023-03-16T19:29:34.209Z,1018.5
2023-03-16T19:35:04.595Z,1018.7
2023-03-16T19:40:49.647Z,1018.8
2023-03-16T19:46:21.601Z,1018.8
2023-03-16T19:51:38.498Z,1018.7
2023-03-16T19:57:18.474Z,1018.6
2023-03-16T20:03:03.159Z,1018.6
2023-03-16T20:08:28.458Z,1018.5
2023-03-16T20:14:05.782Z,1018.6
2023-03-16T20:19:35.585Z,1018.8
2023-03-16T20:24:53.037Z,1018.9
2023-03-16T20:30:35.725Z,1019.1
2023-03-16T20:36:13.796Z,1019.1
2023-03-16T20:41:33.099Z,1019
2023-03-16T20:47:28.421Z,1019.1
2023-03-16T20:52:45.629Z,1019.1
2023-03-16T20:58:35.822Z,1019.3
2023-03-16T21:03:54.574Z,1019.5
2023-03-16T21:09:19.382Z,1019.3
2023-03-16T21:14:53.537Z,1019
2023-03-16T21:20:39.999Z,1019
2023-03-16T21:25:58.335Z,1019
2023-03-16T21:31:30.830Z,1018.8
2023-03-16T21:37:19.908Z,1019.1
2023-03-16T21:42:51.379Z,1019.2
2023-03-16T21:48:16.467Z,1019.3
2023-03-16T21:53:53.643Z,1019.4
2023-03-16T21:59:36.566Z,1019.2
2023-03-16T22:04:58.074Z,1019.3
2023-03-16T22:10:31.789Z,1019.2
2023-03-16T22:15:58.537Z,1019.3
2023-03-16T22:21:41.435Z,1019.2
2023-03-16T22:27:06.690Z,1019.2
2023-03-16T22:32:50.258Z,1019.2
2023-03-16T22:38:06.860Z,1019.2
2023-03-16T22:43:48.193Z,1019.2
2023-03-16T22:49:07.994Z,1019.2
2023-03-16T22:55:02.342Z,1019
2023-03-16T23:00:28.920Z,1019
2023-03-16T23:17:12.009Z,1019.1
2023-03-16T23:22:45.080Z,1019.1
2023-03-16T23:28:08.998Z,1019
